Time;durP1;ratioP1;P1;durP2;ratioP2;P2;SDS_P1;SDS_P2;PMS_P1;PMS_P2;Temp;Humidity;BMP_temperature;BMP_pressure;BME280_temperature;BME280_humidity;BME280_pressure;Samples;Min_cycle;Max_cycle;Signal;HPM_P1;HPM_P2
2021/05/24 07:31:18;;;;;;;16.08;3.38;;;12.50;99.90;;;;;;6121568;23;20261;-88
2021/05/24 07:33:45;;;;;;;15.30;2.97;;;12.50;99.90;;;;;;6182343;23;20021;-87
2021/05/24 07:36:12;;;;;;;14.75;2.70;;;12.60;99.90;;;;;;6181533;23;20017;-88
2021/05/24 07:38:39;;;;;;;16.38;3.30;;;12.70;99.90;;;;;;6182317;23;20076;-83
2021/05/24 07:41:06;;;;;;;22.80;3.95;;;12.80;99.90;;;;;;6182690;23;20036;-85
2021/05/24 07:43:33;;;;;;;18.85;3.00;;;12.90;99.90;;;;;;6179081;23;20029;-83
2021/05/24 07:46:00;;;;;;;18.02;3.28;;;13.00;99.90;;;;;;6178936;23;20016;-82
2021/05/24 07:48:27;;;;;;;19.20;3.63;;;13.00;99.90;;;;;;6178666;23;20044;-84
2021/05/24 07:50:55;;;;;;;23.00;4.13;;;13.10;99.90;;;;;;6180745;23;20021;-85
2021/05/24 07:53:22;;;;;;;15.60;2.83;;;13.10;99.90;;;;;;6177932;23;20056;-82
2021/05/24 07:55:48;;;;;;;19.05;3.47;;;13.10;99.90;;;;;;6179419;23;20017;-84
2021/05/24 07:58:15;;;;;;;17.35;3.63;;;13.20;99.90;;;;;;6179387;23;20075;-87
2021/05/24 08:00:42;;;;;;;23.35;4.05;;;13.30;99.90;;;;;;6180351;23;20021;-86
2021/05/24 08:03:09;;;;;;;20.48;3.42;;;13.20;99.90;;;;;;6180225;23;20471;-85
2021/05/24 08:05:36;;;;;;;25.45;4.43;;;13.00;99.90;;;;;;6179616;23;20064;-88
2021/05/24 08:08:04;;;;;;;12.40;2.60;;;12.70;99.90;;;;;;6179108;23;20079;-90
2021/05/24 08:10:31;;;;;;;11.90;2.38;;;12.40;99.90;;;;;;6179278;23;20063;-88
2021/05/24 08:12:58;;;;;;;8.98;1.70;;;12.00;99.90;;;;;;6179050;23;20025;-85
2021/05/24 08:15:32;;;;;;;6.05;1.30;;;11.60;99.90;;;;;;6178855;23;20032;-86
2021/05/24 08:18:02;;;;;;;10.75;1.67;;;11.10;99.90;;;;;;6179067;23;20036;-86
2021/05/24 08:20:29;;;;;;;12.43;1.80;;;10.70;99.90;;;;;;6178408;23;20087;-86
2021/05/24 08:22:56;;;;;;;13.57;2.20;;;10.50;99.90;;;;;;6179301;23;20021;-85
2021/05/24 08:25:23;;;;;;;10.73;1.90;;;10.40;99.90;;;;;;6178158;23;20404;-85
2021/05/24 08:27:51;;;;;;;16.42;3.17;;;10.50;99.90;;;;;;6180551;23;20468;-83
2021/05/24 08:30:28;;;;;;;17.33;3.07;;;10.70;99.90;;;;;;6178698;23;20020;-86
2021/05/24 08:32:55;;;;;;;15.70;3.10;;;11.00;99.90;;;;;;6179938;23;20017;-85
2021/05/24 08:35:22;;;;;;;20.52;3.30;;;11.20;99.90;;;;;;6178247;23;20017;-84
2021/05/24 08:37:49;;;;;;;22.92;3.42;;;11.30;99.90;;;;;;6178833;23;20025;-86
2021/05/24 08:40:18;;;;;;;16.92;3.63;;;11.40;99.90;;;;;;6179861;23;20467;-86
2021/05/24 08:42:46;;;;;;;15.48;3.13;;;11.50;99.90;;;;;;6180179;23;20537;-84
2021/05/24 08:45:14;;;;;;;22.15;3.85;;;11.70;99.90;;;;;;6178573;23;20017;-86
2021/05/24 08:47:41;;;;;;;17.88;3.03;;;11.90;99.90;;;;;;6178792;23;20091;-87
2021/05/24 08:50:12;;;;;;;11.80;2.40;;;12.10;99.90;;;;;;6178556;23;20523;-86
2021/05/24 08:52:39;;;;;;;17.45;3.28;;;12.20;99.90;;;;;;6178975;23;20016;-88
2021/05/24 08:55:07;;;;;;;20.88;3.22;;;12.30;99.90;;;;;;6179825;23;20071;-86
2021/05/24 08:57:38;;;;;;;16.48;3.20;;;12.20;99.90;;;;;;6180377;23;20021;-88
2021/05/24 09:00:07;;;;;;;21.25;3.47;;;12.10;99.90;;;;;;6178234;23;20349;-87
2021/05/24 09:02:38;;;;;;;12.93;2.42;;;12.00;99.90;;;;;;6178361;23;20091;-86
2021/05/24 09:05:08;;;;;;;20.85;3.05;;;12.00;99.90;;;;;;6180058;23;20028;-86
2021/05/24 09:07:53;;;;;;;13.32;2.63;;;12.10;99.90;;;;;;6180264;23;20013;-86
2021/05/24 09:10:26;;;;;;;14.32;2.58;;;12.10;99.90;;;;;;6178866;23;20025;-85
2021/05/24 09:12:53;;;;;;;9.35;1.80;;;12.20;99.90;;;;;;6181462;23;20021;-83
2021/05/24 09:15:21;;;;;;;8.63;1.70;;;12.30;99.90;;;;;;6181829;23;20068;-86
2021/05/24 09:17:58;;;;;;;6.22;1.33;;;12.50;99.90;;;;;;6180778;23;20075;-86
2021/05/24 09:20:35;;;;;;;8.52;1.60;;;12.60;99.90;;;;;;6181746;23;21012;-85
2021/05/24 09:23:05;;;;;;;8.48;1.50;;;12.70;99.90;;;;;;6180536;23;20019;-85
2021/05/24 09:25:53;;;;;;;9.27;1.88;;;12.80;99.90;;;;;;6180636;23;20452;-86
2021/05/24 09:28:37;;;;;;;13.65;2.80;;;13.10;99.90;;;;;;6180032;23;20029;-86
2021/05/24 09:31:16;;;;;;;9.93;2.42;;;13.10;99.90;;;;;;6181577;23;20017;-87
2021/05/24 09:33:46;;;;;;;14.75;2.65;;;13.20;99.90;;;;;;6182411;23;20017;-86
2021/05/24 09:36:13;;;;;;;17.02;2.75;;;13.10;99.90;;;;;;6182005;23;20017;-88
2021/05/24 09:38:40;;;;;;;17.00;2.47;;;13.00;99.90;;;;;;6182292;23;20023;-86
2021/05/24 09:41:08;;;;;;;18.45;3.47;;;12.90;99.90;;;;;;6181169;23;20470;-88
2021/05/24 09:43:40;;;;;;;17.27;2.97;;;12.90;99.90;;;;;;6181115;23;20558;-87
2021/05/24 09:46:23;;;;;;;14.68;3.67;;;12.80;99.90;;;;;;6178950;23;20311;-87
2021/05/24 09:48:59;;;;;;;16.20;3.28;;;12.70;99.90;;;;;;6179640;23;20024;-85
2021/05/24 09:51:27;;;;;;;18.52;2.85;;;12.70;99.90;;;;;;6179167;23;20021;-86
2021/05/24 09:53:54;;;;;;;12.38;2.92;;;12.70;99.90;;;;;;6180920;23;20069;-86
2021/05/24 09:56:21;;;;;;;13.68;2.97;;;12.70;99.90;;;;;;6178934;23;20076;-88
2021/05/24 09:59:07;;;;;;;12.45;2.88;;;12.80;99.90;;;;;;6179125;23;20036;-89
2021/05/24 10:01:43;;;;;;;11.55;2.83;;;12.80;99.90;;;;;;6179878;23;20391;-86
2021/05/24 10:04:15;;;;;;;5.50;1.50;;;12.70;99.90;;;;;;6178280;23;20476;-86
2021/05/24 10:06:43;;;;;;;5.40;1.38;;;12.40;99.90;;;;;;6178754;23;20024;-87
2021/05/24 10:09:13;;;;;;;6.28;1.42;;;12.10;99.90;;;;;;6178453;23;20032;-86
2021/05/24 10:11:44;;;;;;;11.23;1.88;;;12.00;99.90;;;;;;6177796;23;20021;-85
2021/05/24 10:14:19;;;;;;;8.68;1.63;;;12.00;99.90;;;;;;6177962;23;20017;-84
2021/05/24 10:16:52;;;;;;;9.20;1.95;;;12.10;99.90;;;;;;6178112;23;20017;-87
2021/05/24 10:19:24;;;;;;;6.68;1.50;;;12.20;99.90;;;;;;6176883;23;20025;-87
2021/05/24 10:21:51;;;;;;;8.88;1.83;;;12.50;99.90;;;;;;6178434;23;20076;-86
2021/05/24 10:24:21;;;;;;;9.30;1.95;;;12.80;99.90;;;;;;6176552;23;20072;-87
2021/05/24 10:26:59;;;;;;;12.50;2.15;;;13.00;99.90;;;;;;6179170;23;20398;-87
2021/05/24 10:29:27;;;;;;;13.70;2.15;;;13.30;99.90;;;;;;6176792;23;20410;-87
2021/05/24 10:31:54;;;;;;;11.18;2.28;;;13.30;99.90;;;;;;6177981;23;20456;-83
2021/05/24 10:34:24;;;;;;;11.82;2.75;;;13.30;99.90;;;;;;6179701;23;20029;-91
2021/05/24 10:37:12;;;;;;;13.82;1.70;;;13.20;99.90;;;;;;6180091;23;20024;-88
2021/05/24 10:39:46;;;;;;;7.78;1.45;;;13.20;99.90;;;;;;6178545;23;20017;-87
2021/05/24 10:42:14;;;;;;;15.35;2.45;;;13.10;99.90;;;;;;6179284;23;20064;-86
2021/05/24 10:44:46;;;;;;;11.18;1.92;;;13.20;99.90;;;;;;6180813;23;20020;-85
2021/05/24 10:47:25;;;;;;;10.20;1.90;;;13.30;99.90;;;;;;6179992;23;20009;-86
2021/05/24 10:50:01;;;;;;;14.88;2.47;;;13.30;99.90;;;;;;6178985;23;20523;-89
2021/05/24 10:52:39;;;;;;;13.10;3.13;;;13.30;99.90;;;;;;6178934;23;20068;-85
2021/05/24 10:55:35;;;;;;;14.48;2.60;;;13.40;99.90;;;;;;6178877;23;20017;-89
2021/05/24 10:58:15;;;;;;;15.95;2.40;;;13.30;99.90;;;;;;6161856;23;20460;-85
2021/05/24 11:01:00;;;;;;;15.88;2.60;;;13.20;99.90;;;;;;6179192;23;20020;-85
2021/05/24 11:03:30;;;;;;;16.20;2.65;;;13.30;99.90;;;;;;6179431;23;20013;-86
2021/05/24 11:06:09;;;;;;;12.10;2.47;;;13.30;99.90;;;;;;6180654;23;20055;-85
2021/05/24 11:08:38;;;;;;;18.67;4.68;;;13.00;99.90;;;;;;6179533;23;20013;-87
2021/05/24 11:11:25;;;;;;;13.45;2.88;;;12.90;99.90;;;;;;6180521;23;20021;-87
2021/05/24 11:14:01;;;;;;;14.80;3.67;;;13.00;99.90;;;;;;6179333;23;20029;-86
2021/05/24 11:16:29;;;;;;;13.48;3.40;;;13.10;99.90;;;;;;6178259;23;20514;-87
2021/05/24 11:19:13;;;;;;;12.60;4.07;;;13.20;99.90;;;;;;6180819;23;20025;-87
2021/05/24 11:21:48;;;;;;;17.05;4.47;;;13.20;99.90;;;;;;6179234;23;20009;-88
2021/05/24 11:24:37;;;;;;;10.50;2.47;;;13.20;99.90;;;;;;6181353;23;20032;-87
2021/05/24 11:27:17;;;;;;;12.82;2.45;;;13.40;99.90;;;;;;6181582;23;20009;-85
2021/05/24 11:29:50;;;;;;;15.52;2.97;;;13.50;99.90;;;;;;6180692;23;20024;-88
2021/05/24 11:32:27;;;;;;;14.48;2.72;;;13.30;99.90;;;;;;6181327;23;20028;-87
2021/05/24 11:34:55;;;;;;;14.30;2.45;;;13.10;99.90;;;;;;6182007;23;20021;-86
2021/05/24 11:37:42;;;;;;;7.18;1.75;;;12.60;99.90;;;;;;6181564;23;20021;-85
2021/05/24 11:40:17;;;;;;;7.53;1.50;;;11.90;99.90;;;;;;6181283;23;20039;-86
2021/05/24 11:42:45;;;;;;;14.48;2.05;;;11.50;99.90;;;;;;6180838;23;20032;-85
2021/05/24 11:45:21;;;;;;;7.13;1.63;;;11.30;99.90;;;;;;6179051;23;20036;-85
2021/05/24 11:47:58;;;;;;;11.02;1.83;;;11.40;99.90;;;;;;6180138;23;20013;-85
2021/05/24 11:50:27;;;;;;;8.85;1.85;;;11.50;99.90;;;;;;6181639;23;20032;-84
2021/05/24 11:52:54;;;;;;;12.93;2.28;;;11.80;99.90;;;;;;6177903;23;20016;-87
2021/05/24 11:55:21;;;;;;;10.57;1.90;;;11.90;99.90;;;;;;6177890;23;20333;-86
2021/05/24 11:57:48;;;;;;;13.25;2.47;;;11.80;99.90;;;;;;6178130;23;20032;-86
2021/05/24 12:00:19;;;;;;;15.27;2.53;;;11.90;99.90;;;;;;6179303;23;20080;-87
2021/05/24 12:02:47;;;;;;;16.17;2.50;;;12.10;99.90;;;;;;6177992;23;20076;-88
2021/05/24 12:05:19;;;;;;;18.80;3.10;;;12.10;99.90;;;;;;6177747;23;20029;-87
2021/05/24 12:07:53;;;;;;;12.63;2.65;;;12.00;99.90;;;;;;6177978;23;20032;-85
2021/05/24 12:10:23;;;;;;;13.00;3.40;;;12.10;99.90;;;;;;6179202;23;20091;-86
2021/05/24 12:12:51;;;;;;;15.68;3.13;;;12.30;99.90;;;;;;6178048;23;20025;-87
2021/05/24 12:15:19;;;;;;;13.30;2.55;;;12.40;99.90;;;;;;6179156;23;20021;-86
2021/05/24 12:17:51;;;;;;;14.75;2.28;;;12.70;99.90;;;;;;6178115;23;20020;-87
2021/05/24 12:20:19;;;;;;;19.13;3.28;;;12.90;99.90;;;;;;6162937;23;20432;-86
2021/05/24 12:22:47;;;;;;;11.68;2.15;;;13.20;99.90;;;;;;6177928;23;20075;-87
2021/05/24 12:25:17;;;;;;;13.85;4.60;;;13.20;99.90;;;;;;6179379;23;20436;-86
2021/05/24 12:27:45;;;;;;;15.30;2.70;;;13.20;99.90;;;;;;6179996;23;20019;-85
2021/05/24 12:30:30;;;;;;;13.60;3.83;;;13.20;99.90;;;;;;6179353;23;20041;-85
2021/05/24 12:33:05;;;;;;;12.70;2.55;;;13.20;99.90;;;;;;6179285;23;20465;-85
2021/05/24 12:35:45;;;;;;;15.60;2.67;;;13.20;99.90;;;;;;6178285;23;20481;-87
2021/05/24 12:38:33;;;;;;;12.20;2.03;;;13.20;99.90;;;;;;6177468;23;20071;-87
2021/05/24 12:41:03;;;;;;;13.02;2.40;;;13.30;99.90;;;;;;6178674;23;20091;-87
2021/05/24 12:43:32;;;;;;;10.43;2.20;;;13.40;99.90;;;;;;6179305;23;20013;-87
2021/05/24 12:45:59;;;;;;;10.50;2.65;;;13.40;99.90;;;;;;6179549;23;20021;-87
2021/05/24 12:48:40;;;;;;;12.05;1.90;;;13.30;99.90;;;;;;6180731;23;20009;-87
2021/05/24 12:51:19;;;;;;;11.57;2.45;;;13.20;99.90;;;;;;6181487;23;20024;-88
2021/05/24 12:54:01;;;;;;;15.80;3.13;;;13.10;99.90;;;;;;6180262;23;20017;-87
2021/05/24 12:56:39;;;;;;;12.00;2.60;;;13.20;99.90;;;;;;6179332;23;20025;-86
2021/05/24 12:59:23;;;;;;;16.02;2.55;;;13.20;99.90;;;;;;6178777;23;20021;-85
2021/05/24 13:01:53;;;;;;;13.77;2.65;;;13.30;99.90;;;;;;6178227;23;20075;-87
2021/05/24 13:04:21;;;;;;;11.43;2.60;;;13.30;99.90;;;;;;6174154;23;20017;-87
2021/05/24 13:06:55;;;;;;;12.45;2.45;;;13.40;99.90;;;;;;6175889;23;20023;-85
2021/05/24 13:09:26;;;;;;;14.45;2.55;;;13.60;99.90;;;;;;6176260;23;20079;-86
2021/05/24 13:12:08;;;;;;;11.10;2.15;;;13.80;99.90;;;;;;6176085;23;20079;-87
2021/05/24 13:14:39;;;;;;;14.35;2.65;;;13.80;99.90;;;;;;6176459;23;20017;-88
2021/05/24 13:22:49;;;;;;;13.63;2.28;;;13.50;99.90;;;;;;6179607;23;20025;-86
2021/05/24 13:30:41;;;;;;;13.77;2.45;;;13.30;99.90;;;;;;6175260;23;20021;-89
2021/05/24 13:33:51;;;;;;;13.68;2.35;;;13.40;99.90;;;;;;6172583;23;20021;-90
2021/05/24 13:36:22;;;;;;;13.57;2.85;;;13.50;99.90;;;;;;6112657;23;20022;-88
2021/05/24 13:38:56;;;;;;;10.38;2.10;;;13.50;99.90;;;;;;6112878;23;20018;-88
2021/05/24 13:41:23;;;;;;;13.85;2.75;;;13.80;99.90;;;;;;6088799;23;20030;-86
2021/05/24 13:43:50;;;;;;;12.75;3.00;;;13.90;99.90;;;;;;6115960;23;20028;-91
2021/05/24 13:46:17;;;;;;;17.75;2.90;;;14.00;99.90;;;;;;6120311;23;20025;-87
2021/05/24 13:48:44;;;;;;;12.80;3.03;;;13.90;99.90;;;;;;6120560;23;20041;-88
2021/05/24 13:51:12;;;;;;;12.70;2.60;;;14.00;99.90;;;;;;6120327;23;21117;-87
2021/05/24 13:53:39;;;;;;;8.32;1.90;;;14.00;99.90;;;;;;6119746;23;20473;-87
2021/05/24 13:56:05;;;;;;;12.73;2.63;;;14.10;99.90;;;;;;6119608;23;20022;-87
2021/05/24 13:58:32;;;;;;;9.88;2.08;;;14.00;99.90;;;;;;6118427;23;20017;-88
2021/05/24 14:00:59;;;;;;;14.65;2.60;;;13.90;99.90;;;;;;6119509;23;20446;-85
2021/05/24 14:03:27;;;;;;;14.60;4.97;;;13.80;99.90;;;;;;6121078;23;20026;-87
2021/05/24 14:05:54;;;;;;;13.82;3.00;;;13.80;99.90;;;;;;6124174;23;20089;-86
2021/05/24 14:08:21;;;;;;;10.48;2.63;;;13.70;99.90;;;;;;6183914;23;20472;-87
2021/05/24 14:10:48;;;;;;;12.80;3.08;;;13.60;99.90;;;;;;6184461;23;20479;-87
2021/05/24 14:13:17;;;;;;;15.73;2.92;;;13.60;99.90;;;;;;6185469;23;20484;-86
2021/05/24 14:15:43;;;;;;;14.57;2.83;;;13.50;99.90;;;;;;6184433;23;20071;-87
2021/05/24 14:18:10;;;;;;;19.60;3.15;;;13.30;99.90;;;;;;6183791;23;20083;-86
2021/05/24 14:20:38;;;;;;;13.63;4.20;;;12.90;99.90;;;;;;6183499;23;20060;-87
2021/05/24 14:23:05;;;;;;;12.10;1.90;;;12.50;99.90;;;;;;6183507;23;20103;-88
2021/05/24 14:25:32;;;;;;;12.05;2.42;;;12.10;99.90;;;;;;6183940;23;20477;-87
2021/05/24 14:27:59;;;;;;;12.80;2.28;;;11.90;99.90;;;;;;6184042;23;20017;-85
2021/05/24 14:30:28;;;;;;;11.50;2.28;;;11.90;99.90;;;;;;6185184;23;20017;-86
2021/05/24 14:32:57;;;;;;;15.23;2.55;;;12.00;99.90;;;;;;6184986;23;20531;-85
2021/05/24 14:35:27;;;;;;;14.82;2.97;;;12.20;99.90;;;;;;6184704;23;20036;-84
2021/05/24 14:37:53;;;;;;;15.27;3.00;;;12.30;99.90;;;;;;6183507;23;20021;-86
2021/05/24 14:40:21;;;;;;;12.63;2.67;;;12.40;99.90;;;;;;6183096;23;20028;-86
2021/05/24 14:42:48;;;;;;;12.65;3.15;;;12.50;99.90;;;;;;6183621;23;20084;-87
2021/05/24 14:45:15;;;;;;;9.60;2.05;;;12.50;99.90;;;;;;6183189;23;20017;-87
2021/05/24 14:47:41;;;;;;;10.35;2.63;;;12.50;99.90;;;;;;6185258;23;20013;-88
2021/05/24 14:50:10;;;;;;;13.30;2.95;;;12.50;99.90;;;;;;6183244;23;20523;-88
2021/05/24 14:52:37;;;;;;;15.45;2.55;;;12.50;99.90;;;;;;6182912;23;20017;-89
2021/05/24 14:55:05;;;;;;;13.98;2.95;;;12.50;99.90;;;;;;6182027;23;20524;-85
2021/05/24 14:57:32;;;;;;;17.55;2.70;;;12.60;99.90;;;;;;6182153;23;20013;-87
2021/05/24 14:59:59;;;;;;;9.98;2.25;;;12.60;99.90;;;;;;6182191;23;20056;-87
2021/05/24 15:02:26;;;;;;;9.20;1.80;;;12.60;99.90;;;;;;6182229;23;20013;-90
2021/05/24 15:04:52;;;;;;;12.55;1.77;;;12.60;99.90;;;;;;6182863;23;20087;-87
2021/05/24 15:07:19;;;;;;;8.95;2.28;;;12.50;99.90;;;;;;6183349;23;21025;-89
2021/05/24 15:09:46;;;;;;;16.63;2.30;;;12.50;99.90;;;;;;6182587;23;20531;-89
2021/05/24 15:12:13;;;;;;;17.13;2.78;;;12.40;99.90;;;;;;6183286;23;20017;-87
2021/05/24 15:14:42;;;;;;;12.23;2.70;;;12.50;99.90;;;;;;6183888;23;20059;-90
2021/05/24 15:17:12;;;;;;;14.35;2.40;;;12.60;99.90;;;;;;6181991;23;20021;-88
2021/05/24 15:19:39;;;;;;;12.57;2.38;;;12.60;99.90;;;;;;6183661;23;20024;-89
2021/05/24 15:22:08;;;;;;;12.40;2.35;;;12.60;99.90;;;;;;6181566;23;20080;-89
2021/05/24 15:24:36;;;;;;;9.60;2.10;;;12.50;99.90;;;;;;6183304;23;20059;-88
2021/05/24 15:27:03;;;;;;;13.30;2.13;;;12.50;99.90;;;;;;6182557;23;20390;-88
2021/05/24 15:29:30;;;;;;;13.13;2.33;;;12.50;99.90;;;;;;6183597;23;20531;-87
2021/05/24 15:31:57;;;;;;;9.98;1.85;;;12.50;99.90;;;;;;6182029;23;20025;-89
2021/05/24 15:34:26;;;;;;;14.93;2.88;;;12.60;99.90;;;;;;6181882;23;20029;-87
2021/05/24 15:36:54;;;;;;;8.73;2.22;;;12.50;99.90;;;;;;6182398;23;20404;-91
2021/05/24 15:39:22;;;;;;;13.13;2.90;;;12.40;99.90;;;;;;6181742;23;20460;-87
2021/05/24 15:41:49;;;;;;;10.75;2.70;;;12.30;99.90;;;;;;6182392;23;20017;-89
2021/05/24 15:44:16;;;;;;;18.80;3.00;;;12.10;99.90;;;;;;6181653;23;20129;-90
2021/05/24 15:46:43;;;;;;;14.88;2.70;;;12.10;99.90;;;;;;6183730;23;20468;-88
2021/05/24 15:49:10;;;;;;;17.15;3.05;;;12.20;99.90;;;;;;6182841;23;20017;-88
2021/05/24 15:51:37;;;;;;;16.25;2.35;;;12.40;99.90;;;;;;6183764;23;20517;-90
2021/05/24 15:54:04;;;;;;;12.35;2.35;;;12.60;99.90;;;;;;6180895;23;20017;-88
2021/05/24 15:56:31;;;;;;;10.85;2.63;;;12.80;99.90;;;;;;6181708;23;20040;-86
2021/05/24 15:59:18;;;;;;;10.20;2.05;;;13.00;99.90;;;;;;6181562;23;20511;-92
2021/05/24 16:01:45;;;;;;;9.20;2.33;;;13.10;99.90;;;;;;6183403;23;20017;-88
2021/05/24 16:04:12;;;;;;;11.43;2.13;;;13.20;99.90;;;;;;6183056;23;20349;-88
2021/05/24 16:06:39;;;;;;;10.48;2.05;;;13.20;99.90;;;;;;6181783;23;20059;-87
2021/05/24 16:09:08;;;;;;;13.52;2.75;;;13.20;99.90;;;;;;6181449;23;20017;-88
2021/05/24 16:11:34;;;;;;;22.35;3.08;;;13.10;99.90;;;;;;6183565;23;20016;-87
2021/05/24 16:14:02;;;;;;;13.85;2.88;;;13.10;99.90;;;;;;6184267;23;20021;-86
2021/05/24 16:16:29;;;;;;;11.35;2.50;;;13.10;99.90;;;;;;6182657;23;20017;-90
2021/05/24 16:18:56;;;;;;;15.10;3.28;;;13.20;99.90;;;;;;6181707;23;20025;-87
2021/05/24 16:21:23;;;;;;;14.35;2.22;;;13.20;99.90;;;;;;6180887;23;20017;-89
2021/05/24 16:24:00;;;;;;;12.80;2.28;;;13.20;99.90;;;;;;6183342;23;20017;-87
2021/05/24 16:26:27;;;;;;;10.23;1.73;;;13.30;99.90;;;;;;6182329;23;20017;-87
2021/05/24 16:28:55;;;;;;;12.80;2.28;;;13.20;99.90;;;;;;6183279;23;20032;-87
2021/05/24 16:31:22;;;;;;;13.48;2.55;;;13.20;99.90;;;;;;6180244;23;20083;-90
2021/05/24 16:33:49;;;;;;;14.50;2.38;;;13.20;99.90;;;;;;6182794;23;20461;-87
2021/05/24 16:36:16;;;;;;;12.63;2.30;;;13.30;99.90;;;;;;6182572;23;20480;-86
2021/05/24 16:38:43;;;;;;;15.80;2.80;;;13.50;99.90;;;;;;6182512;23;20021;-86
2021/05/24 16:41:10;;;;;;;15.95;2.42;;;13.60;99.90;;;;;;6181641;23;20071;-90
2021/05/24 16:43:38;;;;;;;9.65;2.42;;;13.60;99.90;;;;;;6180322;23;20025;-89
2021/05/24 16:46:05;;;;;;;10.80;1.92;;;13.70;99.90;;;;;;6179081;23;20527;-91
2021/05/24 16:48:31;;;;;;;8.52;1.77;;;13.80;99.90;;;;;;6180877;23;20080;-88
2021/05/24 16:50:59;;;;;;;10.10;2.00;;;13.80;99.90;;;;;;6180044;23;20013;-88
2021/05/24 16:53:28;;;;;;;9.05;2.05;;;13.80;99.90;;;;;;6177919;23;20021;-91
2021/05/24 16:55:59;;;;;;;9.82;2.00;;;13.70;99.90;;;;;;6177761;23;20029;-90
2021/05/24 16:58:27;;;;;;;8.38;1.50;;;13.70;99.90;;;;;;6177078;23;20067;-93
2021/05/24 17:00:56;;;;;;;12.82;2.08;;;13.40;99.90;;;;;;6147705;23;20323;-90
2021/05/24 17:03:42;;;;;;;11.52;2.67;;;13.20;99.90;;;;;;6148923;23;20017;-89
2021/05/24 17:06:18;;;;;;;9.55;1.90;;;13.10;99.90;;;;;;6147394;23;20027;-90
2021/05/24 17:08:51;;;;;;;12.20;1.80;;;13.10;99.90;;;;;;6147699;23;20481;-90
2021/05/24 17:11:20;;;;;;;17.95;2.83;;;13.10;99.90;;;;;;6147136;23;20025;-90
2021/05/24 17:13:47;;;;;;;13.27;2.90;;;13.00;99.90;;;;;;6147532;23;20029;-89
2021/05/24 17:16:15;;;;;;;15.82;2.50;;;12.90;99.90;;;;;;6148392;23;20017;-90
2021/05/24 17:18:42;;;;;;;11.45;2.72;;;12.90;99.90;;;;;;6147516;23;20080;-92
2021/05/24 17:21:09;;;;;;;11.73;2.55;;;12.80;99.90;;;;;;6145539;23;20021;-90
2021/05/24 17:23:38;;;;;;;16.33;2.70;;;12.80;99.90;;;;;;6147635;23;20117;-90
2021/05/24 17:26:05;;;;;;;15.25;2.22;;;12.60;99.90;;;;;;6147303;23;20017;-90
2021/05/24 17:28:32;;;;;;;15.63;2.83;;;12.60;99.90;;;;;;6148705;23;20759;-90
2021/05/24 17:31:01;;;;;;;17.08;3.20;;;12.50;99.90;;;;;;6150148;23;20068;-90
2021/05/24 17:33:29;;;;;;;13.73;2.47;;;12.60;99.90;;;;;;6150987;23;20021;-89
2021/05/24 17:35:58;;;;;;;11.77;2.35;;;12.80;99.90;;;;;;6150037;23;20044;-91
2021/05/24 17:38:25;;;;;;;15.63;3.47;;;13.00;99.90;;;;;;6148713;23;20041;-90
2021/05/24 17:40:53;;;;;;;14.77;2.22;;;13.00;99.90;;;;;;6151035;23;20021;-88
2021/05/24 17:43:20;;;;;;;11.93;2.80;;;13.00;99.90;;;;;;6148186;23;20025;-90
2021/05/24 17:45:47;;;;;;;10.43;1.95;;;13.00;99.90;;;;;;6150137;23;20476;-93
2021/05/24 17:48:15;;;;;;;12.52;1.85;;;12.90;99.90;;;;;;6149536;23;20018;-91
2021/05/24 17:50:46;;;;;;;13.93;2.45;;;13.00;99.90;;;;;;6149420;23;20028;-89
2021/05/24 17:53:13;;;;;;;11.02;2.05;;;12.90;99.90;;;;;;6150244;23;20030;-90
2021/05/24 17:55:43;;;;;;;10.07;1.75;;;12.90;99.90;;;;;;6149847;23;20029;-90
2021/05/24 17:58:11;;;;;;;13.95;2.97;;;12.90;99.90;;;;;;6148781;23;20029;-92
2021/05/24 18:00:38;;;;;;;17.23;2.83;;;12.60;99.90;;;;;;6151304;23;20065;-89
2021/05/24 18:03:07;;;;;;;12.70;2.55;;;12.70;99.90;;;;;;6148458;23;20029;-88
2021/05/24 18:05:34;;;;;;;11.20;2.38;;;12.80;99.90;;;;;;6149155;23;20032;-89
2021/05/24 18:08:02;;;;;;;10.55;2.15;;;13.10;99.90;;;;;;6153212;23;20017;-90
2021/05/24 18:10:29;;;;;;;10.75;2.42;;;13.20;99.90;;;;;;6151741;23;20017;-88
2021/05/24 18:12:57;;;;;;;10.30;2.20;;;13.30;99.90;;;;;;6152256;23;20658;-88
2021/05/24 18:15:28;;;;;;;15.57;2.35;;;13.30;99.90;;;;;;6151429;23;20086;-90
2021/05/24 18:18:13;;;;;;;9.73;1.83;;;13.30;99.90;;;;;;6152896;23;20018;-89
2021/05/24 18:20:42;;;;;;;12.55;2.33;;;13.20;99.90;;;;;;6151460;23;20025;-87
2021/05/24 18:23:11;;;;;;;14.35;2.53;;;13.00;99.90;;;;;;6151466;23;20413;-90
2021/05/24 18:25:40;;;;;;;11.55;2.40;;;12.80;99.90;;;;;;6151710;23;20068;-90
2021/05/24 18:28:07;;;;;;;11.80;2.58;;;12.50;99.90;;;;;;6151971;23;20022;-89
2021/05/24 18:30:36;;;;;;;17.98;2.60;;;12.40;99.90;;;;;;6151614;23;20072;-88
2021/05/24 18:33:04;;;;;;;21.45;2.55;;;12.40;99.90;;;;;;6151562;23;20021;-91
2021/05/24 18:35:37;;;;;;;24.83;4.32;;;12.30;99.90;;;;;;6150976;23;20036;-88
2021/05/24 18:38:08;;;;;;;15.38;2.85;;;12.30;99.90;;;;;;6154068;23;20025;-90
2021/05/24 18:40:37;;;;;;;16.05;3.33;;;12.30;99.90;;;;;;6152056;23;20018;-85
2021/05/24 18:43:11;;;;;;;15.50;3.90;;;12.20;99.90;;;;;;6152758;23;20021;-85
2021/05/24 18:45:40;;;;;;;14.68;3.05;;;12.20;99.90;;;;;;6154028;23;20017;-87
2021/05/24 18:48:07;;;;;;;15.45;2.45;;;12.10;99.90;;;;;;6151734;23;20021;-86
2021/05/24 18:50:35;;;;;;;21.30;2.97;;;12.10;99.90;;;;;;6152038;23;20025;-85
2021/05/24 18:53:03;;;;;;;19.08;3.58;;;12.00;99.90;;;;;;6151187;23;20014;-85
2021/05/24 18:55:32;;;;;;;15.23;2.90;;;11.90;99.90;;;;;;6150826;23;20527;-85
2021/05/24 18:57:59;;;;;;;14.68;2.72;;;11.90;99.90;;;;;;6151113;23;20018;-86
2021/05/24 19:00:27;;;;;;;17.77;2.75;;;11.90;99.90;;;;;;6150277;23;20512;-86
2021/05/24 19:03:05;;;;;;;18.77;3.08;;;11.80;99.90;;;;;;6152497;23;20068;-85
2021/05/24 19:08:22;;;;;;;20.00;3.40;;;11.70;99.90;;;;;;6152109;23;20025;-86
2021/05/24 19:10:50;;;;;;;21.77;3.60;;;11.70;99.90;;;;;;6152829;23;20026;-86
2021/05/24 19:13:17;;;;;;;15.15;2.55;;;11.60;99.90;;;;;;6150969;23;20080;-86
2021/05/24 19:15:46;;;;;;;17.58;3.22;;;11.60;99.90;;;;;;6151189;23;20084;-87
2021/05/24 19:18:16;;;;;;;13.15;2.92;;;11.60;99.90;;;;;;6147301;23;20021;-87
2021/05/24 19:20:44;;;;;;;8.43;2.00;;;11.50;99.90;;;;;;6146809;23;20018;-87
2021/05/24 19:23:13;;;;;;;10.55;2.10;;;11.40;99.90;;;;;;6148408;23;20022;-88
2021/05/24 19:25:44;;;;;;;11.60;2.15;;;11.30;99.90;;;;;;6144873;23;20020;-89
2021/05/24 19:28:14;;;;;;;13.65;2.47;;;11.10;99.90;;;;;;6146842;23;20014;-89
2021/05/24 19:30:42;;;;;;;12.90;1.98;;;11.10;99.90;;;;;;6146220;23;20014;-88
2021/05/24 19:33:09;;;;;;;11.63;1.97;;;11.00;99.90;;;;;;6144662;23;20080;-88
2021/05/24 19:35:37;;;;;;;15.98;2.67;;;11.00;99.90;;;;;;6146096;23;20026;-87
2021/05/24 19:38:04;;;;;;;13.57;2.05;;;10.90;99.90;;;;;;6148514;23;20021;-88
2021/05/24 19:40:31;;;;;;;13.23;2.58;;;10.90;99.90;;;;;;6147479;23;20072;-86
2021/05/24 19:42:59;;;;;;;13.55;2.67;;;10.90;99.90;;;;;;6147666;23;20107;-86
2021/05/24 19:45:26;;;;;;;13.02;2.10;;;10.90;99.90;;;;;;6146029;23;20025;-87
2021/05/24 20:26:25;;;;;;;25.52;4.18;;;10.30;99.90;;;;;;6149595;23;20647;-85
2021/05/24 20:28:57;;;;;;;31.47;3.70;;;10.30;99.90;;;;;;6148810;23;20017;-86
2021/05/24 20:31:26;;;;;;;16.88;3.28;;;10.30;99.90;;;;;;6149731;23;20029;-87
2021/05/24 20:33:56;;;;;;;22.85;3.42;;;10.30;99.90;;;;;;6149825;23;20025;-87
2021/05/24 20:36:23;;;;;;;20.40;3.60;;;10.30;99.90;;;;;;6148209;23;20091;-87
2021/05/24 20:38:50;;;;;;;17.02;2.88;;;10.30;99.90;;;;;;6148523;23;20025;-87
2021/05/24 20:41:18;;;;;;;18.60;2.95;;;10.30;99.90;;;;;;6148489;23;20021;-84
2021/05/24 20:43:48;;;;;;;18.15;2.70;;;10.30;99.90;;;;;;6149779;23;20018;-85
2021/05/24 20:46:18;;;;;;;24.77;3.28;;;10.30;99.90;;;;;;6149015;23;20088;-87
2021/05/24 20:48:45;;;;;;;20.00;3.25;;;10.40;99.90;;;;;;6149560;23;20022;-87
2021/05/24 20:51:12;;;;;;;19.23;3.40;;;10.40;99.90;;;;;;6149166;23;20080;-85
2021/05/24 20:53:39;;;;;;;20.63;3.40;;;10.40;99.90;;;;;;6150626;23;20014;-88
2021/05/24 20:56:10;;;;;;;17.90;3.17;;;10.40;99.90;;;;;;6148778;23;20013;-87
2021/05/24 20:58:44;;;;;;;20.85;2.83;;;10.40;99.90;;;;;;6149934;23;20457;-86
2021/05/24 21:01:12;;;;;;;20.48;3.10;;;10.40;99.90;;;;;;6148576;23;20029;-88
2021/05/24 21:03:40;;;;;;;18.98;2.80;;;10.40;99.90;;;;;;6148325;23;20014;-86
2021/05/24 21:06:07;;;;;;;19.15;3.17;;;10.40;99.90;;;;;;6149808;23;20077;-86
2021/05/24 21:08:34;;;;;;;21.35;2.70;;;10.40;99.90;;;;;;6155429;23;20017;-86
2021/05/24 21:11:02;;;;;;;16.52;3.08;;;10.40;99.90;;;;;;6156177;23;20024;-85
2021/05/24 21:13:30;;;;;;;15.20;2.40;;;10.40;99.90;;;;;;6152332;23;20326;-86
2021/05/24 21:15:57;;;;;;;17.17;2.43;;;10.40;99.90;;;;;;6153470;23;20025;-87